Portada
METAR-TAF:

METAR-TAF

Aeroports :

Londrina, Paranà, Brasil

latitud: 23-20S, longitud: 051-08W, altitud: 569 m

Observació

L'informe es va fer fa 20 minuts, a les 21:00 UTC
Vent calma
Temperatura 25°C
Humitat 34%
Pressió 1023 hPa
Visibilitat 10 km o més
sense núvols per sota de 1500 mi sense presència de cumulonimbus.

METAR: SBLO 072100Z 00000KT CAVOK 25/08 Q1023

Hora: 18:20 (21:20 UTC)

Pronòstic

L'informe es va fer fa 6 hores i 20 minuts, a les 15:00 UTC
Pronòstic vàlid del 07 a les 18 UTC al 08 a les 06 UTC
Vent 7 kt del Nord-Est
Visibilitat 10 km o més
sense núvols per sota de 1500 mi sense presència de cumulonimbus.

TAF: SBLO 071500Z 0718/0806 05007KT CAVOK TX27/0718Z TN12/0806Z RMK PAZ

Observacions i pronòstics meteorològics de més de 4000 aeroports (METAR i TAF).

Les estacions disponibles són els punts grocs i vermells al mapa.

Posi el ratolí al punt desitjat per veure el nom de l'estació.

Feu clic per veure les observacions i els pronòstics meteorològics.

Per canviar el mapa: feu clic els botons verds amb una creu de color negre per apropar; al botó verd amb un guió per allunyar la imatge; o en les fletxes verdes per a mapes adjacents.


METAR-TAF: